Time;durP1;ratioP1;P1;durP2;ratioP2;P2;SDS_P1;SDS_P2;PMS_P1;PMS_P2;Temp;Humidity;BMP_temperature;BMP_pressure;BME280_temperature;BME280_humidity;BME280_pressure;Samples;Min_cycle;Max_cycle;Signal;HPM_P1;HPM_P2
2022/12/01 00:01:16;;;;;;;;;;;10.80;70.90;;;;;;5008795;28;19926;-55
2022/12/01 00:03:43;;;;;;;;;;;10.80;70.90;;;;;;5021638;28;20072;-54
2022/12/01 00:06:15;;;;;;;;;;;10.80;70.90;;;;;;5019957;28;19948;-51
2022/12/01 00:11:28;;;;;;;;;;;10.80;70.90;;;;;;5009476;28;20364;-52
2022/12/01 00:13:55;;;;;;;;;;;10.80;70.90;;;;;;5023321;28;19936;-52
2022/12/01 00:16:21;;;;;;;;;;;10.80;70.90;;;;;;5020901;28;19926;-55
2022/12/01 00:18:50;;;;;;;;;;;10.80;70.90;;;;;;5021836;28;20412;-53
2022/12/01 00:21:18;;;;;;;;;;;10.80;70.80;;;;;;5025473;28;20524;-54
2022/12/01 00:23:48;;;;;;;;;;;10.80;70.80;;;;;;5025592;28;19991;-55
2022/12/01 00:26:17;;;;;;;;;;;10.70;70.80;;;;;;5021373;28;19929;-51
2022/12/01 00:28:46;;;;;;;;;;;10.70;70.80;;;;;;5028913;28;19925;-52
2022/12/01 00:31:15;;;;;;;;;;;10.80;70.80;;;;;;5028959;28;19983;-50
2022/12/01 00:33:42;;;;;;;;;;;10.80;70.80;;;;;;5024866;28;19925;-50
2022/12/01 00:36:08;;;;;;;;;;;10.70;70.80;;;;;;5022329;28;19925;-54
2022/12/01 00:38:35;;;;;;;;;;;10.70;70.90;;;;;;5026934;28;20003;-53
2022/12/01 00:41:02;;;;;;;;;;;10.70;70.90;;;;;;5021325;28;19926;-50
2022/12/01 00:43:29;;;;;;;;;;;10.70;70.90;;;;;;5025906;28;20401;-53
2022/12/01 00:45:56;;;;;;;;;;;10.70;70.80;;;;;;5004882;28;19931;-54
2022/12/01 00:48:22;;;;;;;;;;;10.70;70.80;;;;;;5020128;28;19925;-54
2022/12/01 00:50:56;;;;;;;;;;;10.60;70.80;;;;;;5021545;28;19925;-52
2022/12/01 00:53:23;;;;;;;;;;;10.70;70.90;;;;;;5025040;28;19948;-55
2022/12/01 00:55:52;;;;;;;;;;;10.70;71.00;;;;;;5024917;28;20352;-54
2022/12/01 00:58:19;;;;;;;;;;;10.60;70.90;;;;;;5020771;28;20373;-52
2022/12/01 01:00:45;;;;;;;;;;;10.60;70.90;;;;;;5024457;28;19933;-51
2022/12/01 01:03:12;;;;;;;;;;;10.60;71.00;;;;;;5028603;28;19932;-55
2022/12/01 01:05:46;;;;;;;;;;;10.70;71.00;;;;;;5023982;28;19929;-51
2022/12/01 01:08:14;;;;;;;;;;;10.60;70.90;;;;;;5027415;28;19969;-55
2022/12/01 01:10:44;;;;;;;;;;;10.60;71.00;;;;;;5018367;28;20405;-54
2022/12/01 01:13:11;;;;;;;;;;;10.60;70.90;;;;;;5026903;28;20402;-53
2022/12/01 01:15:39;;;;;;;;;;;10.60;70.90;;;;;;5028074;28;19929;-54
2022/12/01 01:18:08;;;;;;;;;;;10.60;70.90;;;;;;5017369;28;20628;-55
2022/12/01 01:20:34;;;;;;;;;;;10.60;70.90;;;;;;5013345;28;19929;-51
2022/12/01 01:23:03;;;;;;;;;;;10.60;70.90;;;;;;5024274;28;19929;-54
2022/12/01 01:25:30;;;;;;;;;;;10.60;70.90;;;;;;5012017;28;19926;-53
2022/12/01 01:27:58;;;;;;;;;;;10.60;70.90;;;;;;5007707;28;19932;-55
2022/12/01 01:30:25;;;;;;;;;;;10.60;70.90;;;;;;5031172;28;19925;-51
2022/12/01 01:32:54;;;;;;;;;;;10.50;70.90;;;;;;5019524;28;20634;-52
2022/12/01 01:35:23;;;;;;;;;;;10.50;70.90;;;;;;5011363;28;19925;-54
2022/12/01 01:37:56;;;;;;;;;;;10.50;70.90;;;;;;5020948;28;19947;-53
2022/12/01 01:40:22;;;;;;;;;;;10.70;71.20;;;;;;5030611;28;19932;-52
2022/12/01 01:42:49;;;;;;;;;;;10.50;71.10;;;;;;5022573;28;19929;-55
2022/12/01 01:45:21;;;;;;;;;;;10.50;71.10;;;;;;5027760;28;19933;-51
2022/12/01 01:47:48;;;;;;;;;;;10.50;71.10;;;;;;5022953;28;19925;-54
2022/12/01 01:50:16;;;;;;;;;;;10.50;71.00;;;;;;5022884;28;19925;-53
2022/12/01 01:52:52;;;;;;;;;;;10.50;71.00;;;;;;5032119;28;19932;-55
2022/12/01 01:55:20;;;;;;;;;;;10.50;71.00;;;;;;5027021;28;19932;-54
2022/12/01 01:57:49;;;;;;;;;;;10.50;71.00;;;;;;5025491;28;19936;-55
2022/12/01 02:00:17;;;;;;;;;;;10.50;71.10;;;;;;5024061;28;20466;-52
2022/12/01 02:02:45;;;;;;;;;;;10.50;71.10;;;;;;5030197;28;20024;-55
2022/12/01 02:05:15;;;;;;;;;;;10.50;71.10;;;;;;5029273;28;20473;-51
2022/12/01 02:07:42;;;;;;;;;;;10.40;71.10;;;;;;5021665;28;19972;-54
2022/12/01 02:10:10;;;;;;;;;;;10.40;71.10;;;;;;5018442;28;19933;-55
2022/12/01 02:12:37;;;;;;;;;;;10.40;71.10;;;;;;5011940;28;19925;-52
2022/12/01 02:15:21;;;;;;;;;;;10.40;71.20;;;;;;5014901;28;19944;-53
2022/12/01 02:18:04;;;;;;;;;;;10.40;71.20;;;;;;5018717;28;20380;-54
2022/12/01 02:20:49;;;;;;;;;;;10.40;71.20;;;;;;5019354;28;19961;-53
2022/12/01 02:23:17;;;;;;;;;;;10.40;71.20;;;;;;5019904;28;19925;-55
2022/12/01 02:25:43;;;;;;;;;;;10.40;71.20;;;;;;5023809;28;19929;-54
2022/12/01 02:28:19;;;;;;;;;;;10.40;71.20;;;;;;5025996;28;19929;-55
2022/12/01 02:31:11;;;;;;;;;;;10.40;71.30;;;;;;5025707;28;19965;-54
2022/12/01 02:33:55;;;;;;;;;;;10.30;71.30;;;;;;4991991;28;19959;-51
2022/12/01 02:36:33;;;;;;;;;;;10.40;71.40;;;;;;5022292;28;20412;-55
2022/12/01 02:39:09;;;;;;;;;;;10.30;71.40;;;;;;5018556;28;20433;-50
2022/12/01 02:41:38;;;;;;;;;;;10.40;71.40;;;;;;5029347;28;19963;-50
2022/12/01 02:44:07;;;;;;;;;;;10.40;71.50;;;;;;5025421;28;19925;-54
2022/12/01 02:46:38;;;;;;;;;;;10.40;71.40;;;;;;5023751;28;20370;-54
2022/12/01 02:49:13;;;;;;;;;;;10.40;71.40;;;;;;5021543;28;20019;-51
2022/12/01 02:51:43;;;;;;;;;;;10.40;71.40;;;;;;5029540;28;19999;-55
2022/12/01 02:54:11;;;;;;;;;;;10.40;71.30;;;;;;5019949;28;19930;-54
2022/12/01 02:56:38;;;;;;;;;;;10.40;71.30;;;;;;5020085;28;20428;-53
2022/12/01 02:59:12;;;;;;;;;;;10.40;71.30;;;;;;5010962;28;20405;-55
2022/12/01 03:01:45;;;;;;;;;;;10.40;71.30;;;;;;5014996;28;19926;-50
2022/12/01 03:04:18;;;;;;;;;;;10.40;71.40;;;;;;5029873;28;19925;-53
2022/12/01 03:06:58;;;;;;;;;;;10.40;71.30;;;;;;5021825;28;19947;-53
2022/12/01 03:09:34;;;;;;;;;;;10.40;71.30;;;;;;5023521;28;19932;-54
2022/12/01 03:12:19;;;;;;;;;;;10.40;71.30;;;;;;5020858;28;19960;-51
2022/12/01 03:14:50;;;;;;;;;;;10.40;71.30;;;;;;5026973;28;19925;-54
2022/12/01 03:17:23;;;;;;;;;;;10.40;71.40;;;;;;5017279;28;19925;-55
2022/12/01 03:19:54;;;;;;;;;;;10.40;71.30;;;;;;5010355;28;19929;-51
2022/12/01 03:22:56;;;;;;;;;;;10.30;71.30;;;;;;5028591;28;19931;-53
2022/12/01 03:25:25;;;;;;;;;;;10.30;71.30;;;;;;4949170;29;20630;-54
2022/12/01 03:27:55;;;;;;;;;;;10.30;71.40;;;;;;4999606;28;20355;-52
2022/12/01 03:30:42;;;;;;;;;;;10.30;71.50;;;;;;5018079;28;19930;-55
2022/12/01 03:33:11;;;;;;;;;;;10.30;71.50;;;;;;5024974;28;19925;-51
2022/12/01 03:35:41;;;;;;;;;;;10.40;71.60;;;;;;5021162;28;19931;-54
2022/12/01 03:38:13;;;;;;;;;;;10.30;71.50;;;;;;5027494;28;19931;-54
2022/12/01 03:40:43;;;;;;;;;;;10.30;71.50;;;;;;5027984;28;19929;-53
2022/12/01 03:43:12;;;;;;;;;;;10.30;71.40;;;;;;5021698;28;19933;-54
2022/12/01 03:45:53;;;;;;;;;;;10.40;71.50;;;;;;5026417;28;19948;-55
2022/12/01 03:48:23;;;;;;;;;;;10.30;71.40;;;;;;5019737;28;19980;-52
2022/12/01 03:51:09;;;;;;;;;;;10.30;71.40;;;;;;5019321;28;19972;-54
2022/12/01 03:53:54;;;;;;;;;;;10.30;71.50;;;;;;5013736;28;19939;-55
2022/12/01 03:56:23;;;;;;;;;;;10.30;71.60;;;;;;5029541;28;19932;-53
2022/12/01 03:58:53;;;;;;;;;;;10.30;71.60;;;;;;5028197;28;20468;-52
2022/12/01 04:01:22;;;;;;;;;;;10.30;71.50;;;;;;5008615;28;19972;-51
2022/12/01 04:03:50;;;;;;;;;;;10.30;71.50;;;;;;5020796;28;19925;-54
2022/12/01 04:06:18;;;;;;;;;;;10.30;71.50;;;;;;5027554;28;19932;-54
2022/12/01 04:08:44;;;;;;;;;;;10.30;71.50;;;;;;5025062;28;19925;-53
2022/12/01 04:14:01;;;;;;;;;;;10.30;71.60;;;;;;5010400;28;19925;-52
2022/12/01 04:16:28;;;;;;;;;;;10.30;71.60;;;;;;5017614;28;19926;-50
2022/12/01 04:18:54;;;;;;;;;;;10.40;71.60;;;;;;5025405;28;19979;-51
2022/12/01 04:21:21;;;;;;;;;;;10.30;71.50;;;;;;5021458;28;20027;-53
2022/12/01 04:24:00;;;;;;;;;;;10.30;71.50;;;;;;5012540;28;20451;-51
2022/12/01 04:26:31;;;;;;;;;;;10.30;71.50;;;;;;5014869;28;19931;-54
2022/12/01 04:28:58;;;;;;;;;;;10.30;71.60;;;;;;5022855;28;19925;-54
2022/12/01 04:31:25;;;;;;;;;;;10.30;71.50;;;;;;5015441;28;19935;-52
2022/12/01 04:33:53;;;;;;;;;;;10.30;71.50;;;;;;5017681;28;19932;-54
2022/12/01 04:36:22;;;;;;;;;;;10.30;71.50;;;;;;5022863;28;20020;-54
2022/12/01 04:38:52;;;;;;;;;;;10.30;71.60;;;;;;5021892;28;19979;-54
2022/12/01 04:41:19;;;;;;;;;;;10.30;71.50;;;;;;5021543;28;20320;-53
2022/12/01 04:43:45;;;;;;;;;;;10.30;71.50;;;;;;5021969;28;20481;-51
2022/12/01 04:46:14;;;;;;;;;;;10.30;71.60;;;;;;5025159;28;19932;-52
2022/12/01 04:48:44;;;;;;;;;;;10.30;71.60;;;;;;5028508;28;20385;-53
2022/12/01 04:51:10;;;;;;;;;;;10.30;71.70;;;;;;5007650;28;19931;-53
2022/12/01 04:53:37;;;;;;;;;;;10.30;71.60;;;;;;5032791;28;19929;-51
2022/12/01 04:56:06;;;;;;;;;;;10.30;71.60;;;;;;5021346;28;20152;-55
2022/12/01 04:58:37;;;;;;;;;;;10.30;71.60;;;;;;5025607;28;20432;-54
2022/12/01 05:01:09;;;;;;;;;;;10.30;71.70;;;;;;5013669;28;19925;-54
2022/12/01 05:03:37;;;;;;;;;;;10.30;71.70;;;;;;5018084;28;19925;-52
2022/12/01 05:06:05;;;;;;;;;;;10.30;71.70;;;;;;5023216;28;20467;-55
2022/12/01 05:08:33;;;;;;;;;;;10.30;71.70;;;;;;5018264;28;19925;-52
2022/12/01 05:11:06;;;;;;;;;;;10.30;71.60;;;;;;5017010;28;20007;-52
2022/12/01 05:13:35;;;;;;;;;;;10.30;71.60;;;;;;5022145;28;20489;-51
2022/12/01 05:16:03;;;;;;;;;;;10.30;71.60;;;;;;5020165;28;19933;-51
2022/12/01 05:18:30;;;;;;;;;;;10.30;71.60;;;;;;5016609;28;19933;-54
2022/12/01 05:20:58;;;;;;;;;;;10.30;71.60;;;;;;5028627;28;20389;-53
2022/12/01 05:23:27;;;;;;;;;;;10.30;71.60;;;;;;5025280;28;20529;-55
2022/12/01 05:25:56;;;;;;;;;;;10.30;71.70;;;;;;5023042;28;20012;-51
2022/12/01 05:28:23;;;;;;;;;;;10.30;71.60;;;;;;5027157;28;19932;-54
2022/12/01 05:30:53;;;;;;;;;;;10.30;71.70;;;;;;5005483;28;20083;-52
2022/12/01 05:33:20;;;;;;;;;;;10.30;71.60;;;;;;5020022;28;20453;-54
2022/12/01 05:35:47;;;;;;;;;;;10.30;71.50;;;;;;5030767;28;19973;-54
2022/12/01 05:38:16;;;;;;;;;;;10.30;71.50;;;;;;5033234;28;19925;-55
2022/12/01 05:40:48;;;;;;;;;;;10.30;71.50;;;;;;5018236;28;19969;-55
2022/12/01 05:43:14;;;;;;;;;;;10.30;71.50;;;;;;5023295;28;19980;-54
2022/12/01 05:45:43;;;;;;;;;;;10.30;71.50;;;;;;5020339;28;19925;-55
2022/12/01 05:48:12;;;;;;;;;;;10.30;71.40;;;;;;5030695;28;20015;-55
2022/12/01 05:50:38;;;;;;;;;;;10.30;71.40;;;;;;5012868;28;19936;-55
2022/12/01 05:53:05;;;;;;;;;;;10.30;71.40;;;;;;4993900;28;20408;-55
2022/12/01 05:55:35;;;;;;;;;;;10.20;71.30;;;;;;5022161;28;19932;-52
2022/12/01 05:58:01;;;;;;;;;;;10.20;71.30;;;;;;5023576;28;19926;-53
2022/12/01 06:00:33;;;;;;;;;;;10.20;71.30;;;;;;5013831;28;19980;-53
2022/12/01 06:02:59;;;;;;;;;;;10.20;71.30;;;;;;5018305;28;20425;-55
2022/12/01 06:05:26;;;;;;;;;;;10.20;71.30;;;;;;5025935;28;19925;-55
2022/12/01 06:07:52;;;;;;;;;;;10.20;71.40;;;;;;5024845;28;19929;-55
2022/12/01 06:10:19;;;;;;;;;;;10.20;71.30;;;;;;5017473;28;19929;-55
2022/12/01 06:12:47;;;;;;;;;;;10.20;71.30;;;;;;5014193;28;19929;-55
2022/12/01 06:15:13;;;;;;;;;;;10.20;71.30;;;;;;5012983;28;19936;-55
2022/12/01 06:17:40;;;;;;;;;;;10.20;71.30;;;;;;5023639;28;19964;-54
2022/12/01 06:20:12;;;;;;;;;;;10.20;71.30;;;;;;5018712;28;19936;-54
2022/12/01 06:22:38;;;;;;;;;;;10.20;71.90;;;;;;5024919;28;19925;-54
2022/12/01 06:25:06;;;;;;;;;;;10.20;71.30;;;;;;5009113;28;19929;-55
2022/12/01 06:27:32;;;;;;;;;;;10.20;71.30;;;;;;5016747;28;19932;-55
2022/12/01 06:29:59;;;;;;;;;;;10.20;71.30;;;;;;5019212;28;20674;-53
2022/12/01 06:32:26;;;;;;;;;;;10.30;71.30;;;;;;5025068;28;20456;-55
2022/12/01 06:34:52;;;;;;;;;;;10.30;71.30;;;;;;5029341;28;19929;-55
2022/12/01 06:37:19;;;;;;;;;;;10.30;71.40;;;;;;5021403;28;20032;-55
2022/12/01 06:39:45;;;;;;;;;;;10.30;71.30;;;;;;5027490;28;19929;-55
2022/12/01 06:42:12;;;;;;;;;;;10.30;71.30;;;;;;5021524;28;19925;-52
2022/12/01 06:44:39;;;;;;;;;;;10.30;71.20;;;;;;5028653;28;19932;-55
2022/12/01 06:47:07;;;;;;;;;;;10.30;71.20;;;;;;5027263;28;19925;-54
2022/12/01 06:49:33;;;;;;;;;;;10.30;71.20;;;;;;5022194;28;19933;-55
2022/12/01 06:52:02;;;;;;;;;;;10.30;71.10;;;;;;5024328;28;19925;-54
2022/12/01 06:54:29;;;;;;;;;;;10.30;71.10;;;;;;5028625;28;20352;-55
2022/12/01 06:56:58;;;;;;;;;;;10.30;71.00;;;;;;5017705;28;19925;-55
2022/12/01 06:59:24;;;;;;;;;;;10.30;71.00;;;;;;5030813;28;19975;-55
2022/12/01 07:01:51;;;;;;;;;;;10.20;70.90;;;;;;5010754;28;20032;-54
2022/12/01 07:04:21;;;;;;;;;;;10.20;70.90;;;;;;5012627;28;19979;-55
2022/12/01 07:06:47;;;;;;;;;;;10.20;71.00;;;;;;5028475;28;19929;-55
2022/12/01 07:09:14;;;;;;;;;;;10.20;71.00;;;;;;5026278;28;19925;-55
2022/12/01 07:11:40;;;;;;;;;;;10.20;71.00;;;;;;5026039;28;19933;-55
2022/12/01 07:14:15;;;;;;;;;;;10.20;71.00;;;;;;5025973;28;20352;-54
2022/12/01 07:16:45;;;;;;;;;;;10.20;71.00;;;;;;5024223;28;19933;-55
2022/12/01 07:19:11;;;;;;;;;;;10.20;71.00;;;;;;5011067;28;19995;-54
2022/12/01 07:21:41;;;;;;;;;;;10.20;71.00;;;;;;4992440;28;19932;-53
2022/12/01 07:24:07;;;;;;;;;;;10.20;70.90;;;;;;5028430;28;20021;-54
2022/12/01 07:26:34;;;;;;;;;;;10.20;71.00;;;;;;5025783;28;19936;-52
2022/12/01 07:29:01;;;;;;;;;;;10.20;71.00;;;;;;5022158;28;19931;-50
2022/12/01 07:31:27;;;;;;;;;;;10.20;71.00;;;;;;5029135;28;19977;-54
2022/12/01 07:33:54;;;;;;;;;;;10.20;70.90;;;;;;5028650;28;20468;-53
2022/12/01 07:36:21;;;;;;;;;;;10.20;70.90;;;;;;5028864;28;19929;-53
2022/12/01 07:38:47;;;;;;;;;;;10.20;70.90;;;;;;5024011;28;19968;-55
2022/12/01 07:41:17;;;;;;;;;;;10.20;71.00;;;;;;5009144;28;20449;-51
2022/12/01 07:43:47;;;;;;;;;;;10.20;70.90;;;;;;5010327;28;19972;-55
2022/12/01 07:46:17;;;;;;;;;;;10.20;70.90;;;;;;5020946;28;19926;-55
2022/12/01 07:48:49;;;;;;;;;;;10.20;70.80;;;;;;5027784;28;20320;-54
2022/12/01 07:51:16;;;;;;;;;;;10.20;70.80;;;;;;5023986;28;19936;-53
2022/12/01 07:53:43;;;;;;;;;;;10.20;70.80;;;;;;5021330;28;19975;-55
2022/12/01 07:56:10;;;;;;;;;;;10.20;70.80;;;;;;5019062;28;19931;-55
2022/12/01 07:58:37;;;;;;;;;;;10.20;70.80;;;;;;5012698;28;19979;-55
2022/12/01 08:01:06;;;;;;;;;;;10.20;70.80;;;;;;5017840;28;20509;-55
2022/12/01 08:03:39;;;;;;;;;;;10.20;70.80;;;;;;5028486;28;19983;-55
2022/12/01 08:06:07;;;;;;;;;;;10.20;70.80;;;;;;5022267;28;20396;-55
2022/12/01 08:08:34;;;;;;;;;;;10.20;70.90;;;;;;5025334;28;19929;-55
2022/12/01 08:11:02;;;;;;;;;;;10.20;70.90;;;;;;5031066;28;19929;-54
2022/12/01 08:13:28;;;;;;;;;;;10.20;70.90;;;;;;5030293;28;20290;-55
2022/12/01 08:15:55;;;;;;;;;;;10.20;70.90;;;;;;5021964;28;19925;-54
2022/12/01 08:18:23;;;;;;;;;;;10.20;70.80;;;;;;5022776;28;19977;-55
2022/12/01 08:20:49;;;;;;;;;;;10.30;70.80;;;;;;5027337;28;20456;-53
2022/12/01 08:23:16;;;;;;;;;;;10.30;70.80;;;;;;5028771;28;19925;-55
2022/12/01 08:25:42;;;;;;;;;;;10.30;70.80;;;;;;5019916;28;19926;-55
2022/12/01 08:28:09;;;;;;;;;;;10.30;70.90;;;;;;5021367;28;19925;-50
2022/12/01 08:30:38;;;;;;;;;;;10.30;70.90;;;;;;5025618;28;19932;-55
2022/12/01 08:33:04;;;;;;;;;;;10.30;70.80;;;;;;5029040;28;19961;-55
2022/12/01 08:35:34;;;;;;;;;;;10.30;70.90;;;;;;5016758;28;20021;-55
2022/12/01 08:38:01;;;;;;;;;;;10.40;70.80;;;;;;5014630;28;19965;-54
2022/12/01 08:40:27;;;;;;;;;;;10.40;70.80;;;;;;5022970;28;19925;-55
2022/12/01 08:42:54;;;;;;;;;;;10.40;70.80;;;;;;5006444;28;19925;-55
2022/12/01 08:45:21;;;;;;;;;;;10.40;70.80;;;;;;5007776;28;20373;-55
2022/12/01 08:47:48;;;;;;;;;;;10.40;70.70;;;;;;5033260;28;19925;-54
2022/12/01 08:50:15;;;;;;;;;;;10.40;70.70;;;;;;5023491;28;19925;-55
2022/12/01 08:52:41;;;;;;;;;;;10.40;70.80;;;;;;5023560;28;19925;-55
2022/12/01 08:55:08;;;;;;;;;;;10.50;70.90;;;;;;5020550;28;20012;-53
2022/12/01 08:57:35;;;;;;;;;;;10.50;70.80;;;;;;5014321;28;19930;-54
2022/12/01 09:00:02;;;;;;;;;;;10.50;70.90;;;;;;5029454;28;19937;-55
2022/12/01 09:02:29;;;;;;;;;;;10.50;70.80;;;;;;5019055;28;20467;-55
2022/12/01 09:04:55;;;;;;;;;;;10.50;70.80;;;;;;5033507;28;19925;-53
2022/12/01 09:07:22;;;;;;;;;;;10.50;70.80;;;;;;5013239;28;19932;-50
2022/12/01 09:09:52;;;;;;;;;;;10.50;70.80;;;;;;5029725;28;19929;-55
2022/12/01 09:12:21;;;;;;;;;;;10.50;70.70;;;;;;5023439;28;19933;-55
2022/12/01 09:14:48;;;;;;;;;;;10.60;70.70;;;;;;5033764;28;19932;-55
2022/12/01 09:17:16;;;;;;;;;;;10.50;70.60;;;;;;5027405;28;19932;-55
2022/12/01 09:19:43;;;;;;;;;;;10.60;70.70;;;;;;5026755;28;20320;-55
2022/12/01 09:22:10;;;;;;;;;;;10.50;70.70;;;;;;5023139;28;19929;-55
2022/12/01 09:24:36;;;;;;;;;;;10.50;70.70;;;;;;5022118;28;19975;-54
2022/12/01 09:27:08;;;;;;;;;;;10.60;70.70;;;;;;5023909;28;19968;-52
2022/12/01 09:29:35;;;;;;;;;;;10.50;70.70;;;;;;5024275;28;19960;-54
2022/12/01 09:32:02;;;;;;;;;;;10.60;70.80;;;;;;5016706;28;19947;-55
2022/12/01 09:34:28;;;;;;;;;;;10.60;70.80;;;;;;5028411;28;19935;-55
2022/12/01 09:36:57;;;;;;;;;;;10.50;71.40;;;;;;5023958;28;19925;-55
2022/12/01 09:39:23;;;;;;;;;;;10.60;70.70;;;;;;5021547;28;19924;-54
2022/12/01 09:41:53;;;;;;;;;;;10.60;70.80;;;;;;5013571;28;19932;-55
2022/12/01 09:44:38;;;;;;;;;;;10.60;70.70;;;;;;5016033;28;19930;-55
2022/12/01 09:47:12;;;;;;;;;;;10.60;70.80;;;;;;5028802;28;19979;-51
2022/12/01 09:50:00;;;;;;;;;;;10.60;70.80;;;;;;5014261;28;19926;-55
2022/12/01 09:52:28;;;;;;;;;;;10.60;70.80;;;;;;5012829;28;20053;-55
2022/12/01 09:54:57;;;;;;;;;;;10.60;70.80;;;;;;5015574;28;19926;-55
2022/12/01 09:57:33;;;;;;;;;;;10.60;70.80;;;;;;5002666;28;19926;-55
2022/12/01 10:00:01;;;;;;;;;;;10.70;70.90;;;;;;5020127;28;19940;-55
2022/12/01 10:02:40;;;;;;;;;;;10.70;70.80;;;;;;5012126;28;19956;-55
2022/12/01 10:05:14;;;;;;;;;;;10.70;71.40;;;;;;5022120;28;20473;-53
2022/12/01 10:07:47;;;;;;;;;;;10.70;70.70;;;;;;5021546;28;19925;-55
2022/12/01 10:10:17;;;;;;;;;;;10.70;70.80;;;;;;5020920;28;19926;-55
2022/12/01 10:12:45;;;;;;;;;;;10.70;70.70;;;;;;5013969;28;20047;-52
2022/12/01 10:15:11;;;;;;;;;;;10.70;70.70;;;;;;5026493;28;19925;-52
2022/12/01 10:17:56;;;;;;;;;;;10.70;70.60;;;;;;5018523;28;19932;-55
2022/12/01 10:20:26;;;;;;;;;;;10.70;70.70;;;;;;5020005;28;20401;-52
2022/12/01 10:23:11;;;;;;;;;;;10.70;70.80;;;;;;5027047;28;20379;-53
2022/12/01 10:25:50;;;;;;;;;;;10.70;70.70;;;;;;5021080;28;19932;-55
2022/12/01 10:28:26;;;;;;;;;;;10.70;70.80;;;;;;5017050;28;19992;-55
2022/12/01 10:30:55;;;;;;;;;;;10.70;70.70;;;;;;5011299;28;19925;-55
2022/12/01 10:33:25;;;;;;;;;;;10.70;70.70;;;;;;5020206;28;20415;-55
2022/12/01 10:35:52;;;;;;;;;;;10.70;70.60;;;;;;5027123;28;19945;-55
2022/12/01 10:38:28;;;;;;;;;;;10.70;70.60;;;;;;5027149;28;19933;-54
2022/12/01 10:40:58;;;;;;;;;;;10.70;70.60;;;;;;5017809;28;19979;-54
2022/12/01 10:43:31;;;;;;;;;;;10.70;70.60;;;;;;5026930;28;19964;-55
2022/12/01 10:45:59;;;;;;;;;;;10.70;70.60;;;;;;5012597;28;19925;-55
2022/12/01 10:48:26;;;;;;;;;;;10.70;70.50;;;;;;5029095;28;19925;-55
2022/12/01 10:50:55;;;;;;;;;;;10.70;70.60;;;;;;5023808;28;19925;-55
2022/12/01 10:53:21;;;;;;;;;;;10.70;70.60;;;;;;5030704;28;20427;-55
2022/12/01 10:55:57;;;;;;;;;;;10.70;70.50;;;;;;5018518;28;19984;-55
2022/12/01 10:58:24;;;;;;;;;;;10.70;70.50;;;;;;5024483;28;20020;-55
2022/12/01 11:01:02;;;;;;;;;;;10.70;70.50;;;;;;5023734;28;19925;-55
2022/12/01 11:03:33;;;;;;;;;;;10.70;70.60;;;;;;5023745;28;19937;-54
2022/12/01 11:06:01;;;;;;;;;;;10.70;70.60;;;;;;5030468;28;19933;-54
2022/12/01 11:08:38;;;;;;;;;;;10.70;70.60;;;;;;5026209;28;20336;-54
2022/12/01 11:11:05;;;;;;;;;;;10.70;70.60;;;;;;5005608;28;19925;-54
2022/12/01 11:13:35;;;;;;;;;;;10.60;70.50;;;;;;5022547;28;19925;-52
2022/12/01 11:16:03;;;;;;;;;;;10.60;70.50;;;;;;5023201;28;20028;-53
2022/12/01 11:18:32;;;;;;;;;;;10.60;70.50;;;;;;5021987;28;19983;-55
2022/12/01 11:21:10;;;;;;;;;;;10.60;70.40;;;;;;5027495;28;20015;-55
2022/12/01 11:23:49;;;;;;;;;;;10.60;70.50;;;;;;5018871;28;19925;-54
2022/12/01 11:26:16;;;;;;;;;;;10.60;70.50;;;;;;5027028;28;19961;-55
2022/12/01 11:29:09;;;;;;;;;;;10.60;70.50;;;;;;5020467;28;19925;-55
2022/12/01 11:31:40;;;;;;;;;;;10.60;70.60;;;;;;5012845;28;19929;-55
2022/12/01 11:34:40;;;;;;;;;;;10.60;70.60;;;;;;5029182;28;19925;-55
2022/12/01 11:37:13;;;;;;;;;;;10.60;70.60;;;;;;4997795;28;20241;-55
2022/12/01 11:39:41;;;;;;;;;;;10.70;70.70;;;;;;5028357;28;19929;-55
2022/12/01 11:42:20;;;;;;;;;;;10.70;70.70;;;;;;5018986;28;19926;-55
2022/12/01 11:44:48;;;;;;;;;;;10.70;70.60;;;;;;5026657;28;19975;-55
2022/12/01 11:47:22;;;;;;;;;;;10.70;70.60;;;;;;5024584;28;19925;-55
2022/12/01 11:49:51;;;;;;;;;;;10.70;70.60;;;;;;5031225;28;19948;-55
2022/12/01 11:52:26;;;;;;;;;;;10.70;70.60;;;;;;5028185;28;19925;-55
2022/12/01 11:55:15;;;;;;;;;;;10.70;70.50;;;;;;5020026;28;19971;-53
2022/12/01 11:57:43;;;;;;;;;;;10.80;70.60;;;;;;5017328;28;19925;-55
2022/12/01 12:00:14;;;;;;;;;;;10.70;70.50;;;;;;5026053;28;20461;-55
2022/12/01 12:03:00;;;;;;;;;;;10.80;70.60;;;;;;5028036;28;20043;-55
2022/12/01 12:05:45;;;;;;;;;;;10.80;70.50;;;;;;5014657;28;19968;-55
2022/12/01 12:08:15;;;;;;;;;;;10.80;70.40;;;;;;5016941;28;19930;-55
2022/12/01 12:10:52;;;;;;;;;;;10.80;70.50;;;;;;5022867;28;20021;-54
2022/12/01 12:13:35;;;;;;;;;;;10.80;70.50;;;;;;5030644;28;19925;-54
2022/12/01 12:16:09;;;;;;;;;;;10.80;70.50;;;;;;5026736;28;19925;-55
2022/12/01 12:18:41;;;;;;;;;;;10.80;70.60;;;;;;5012687;28;19926;-54
2022/12/01 12:21:11;;;;;;;;;;;10.80;70.50;;;;;;5029752;28;20348;-55
2022/12/01 12:23:56;;;;;;;;;;;10.80;70.50;;;;;;5023192;28;20332;-55
2022/12/01 12:26:25;;;;;;;;;;;10.80;70.40;;;;;;5019912;28;20025;-55
2022/12/01 12:28:51;;;;;;;;;;;10.80;70.40;;;;;;5010945;28;19929;-55
2022/12/01 12:31:18;;;;;;;;;;;10.80;70.40;;;;;;5012976;28;19935;-51
2022/12/01 12:34:06;;;;;;;;;;;10.80;70.30;;;;;;5026726;28;19929;-55
2022/12/01 12:36:51;;;;;;;;;;;10.80;70.30;;;;;;5026916;28;19929;-55
2022/12/01 12:39:30;;;;;;;;;;;10.80;70.30;;;;;;5018106;28;19975;-54
2022/12/01 12:42:03;;;;;;;;;;;10.80;70.40;;;;;;5017753;28;19948;-55
2022/12/01 12:44:39;;;;;;;;;;;10.80;70.40;;;;;;5015306;28;19935;-55
2022/12/01 12:47:05;;;;;;;;;;;10.80;70.30;;;;;;5016842;28;19925;-54
2022/12/01 12:49:41;;;;;;;;;;;10.70;70.30;;;;;;5019584;28;20709;-55
2022/12/01 12:52:20;;;;;;;;;;;10.70;70.30;;;;;;5014552;28;19939;-55
2022/12/01 12:54:53;;;;;;;;;;;10.70;70.20;;;;;;5021550;28;20449;-55
2022/12/01 12:57:32;;;;;;;;;;;10.70;70.20;;;;;;5024814;28;20007;-55
2022/12/01 13:00:01;;;;;;;;;;;10.70;70.20;;;;;;5032073;28;19933;-55
2022/12/01 13:02:40;;;;;;;;;;;10.70;70.10;;;;;;5029792;28;19940;-55
2022/12/01 13:05:22;;;;;;;;;;;10.70;70.20;;;;;;5017168;28;19929;-55
2022/12/01 13:08:14;;;;;;;;;;;10.70;70.30;;;;;;5031076;28;19968;-55
2022/12/01 13:10:45;;;;;;;;;;;10.70;70.40;;;;;;5007250;28;19972;-54
2022/12/01 13:13:22;;;;;;;;;;;10.60;70.30;;;;;;5031226;28;20401;-55
2022/12/01 13:15:50;;;;;;;;;;;10.60;70.30;;;;;;5023721;28;19932;-53
2022/12/01 13:18:21;;;;;;;;;;;10.60;70.30;;;;;;5022063;28;20377;-55
2022/12/01 13:20:51;;;;;;;;;;;10.60;70.30;;;;;;5014998;28;20020;-55
2022/12/01 13:23:19;;;;;;;;;;;10.70;70.30;;;;;;5022729;28;19932;-55
2022/12/01 13:25:48;;;;;;;;;;;10.60;70.30;;;;;;5027299;28;20325;-55
2022/12/01 13:28:21;;;;;;;;;;;10.60;70.30;;;;;;5031154;28;19931;-54
2022/12/01 13:31:04;;;;;;;;;;;10.60;70.30;;;;;;5023447;28;19925;-55
2022/12/01 13:33:33;;;;;;;;;;;10.60;70.30;;;;;;5023140;28;19965;-54
2022/12/01 13:36:00;;;;;;;;;;;10.60;70.30;;;;;;5014023;28;20478;-54
2022/12/01 13:38:58;;;;;;;;;;;10.60;70.30;;;;;;5012972;28;19925;-55
2022/12/01 13:41:27;;;;;;;;;;;10.60;70.30;;;;;;5029710;28;19925;-54
2022/12/01 13:43:56;;;;;;;;;;;10.60;70.30;;;;;;5020422;28;19925;-52
2022/12/01 13:46:25;;;;;;;;;;;10.60;70.30;;;;;;5021167;28;19979;-52
2022/12/01 13:48:53;;;;;;;;;;;10.60;70.30;;;;;;5024835;28;20480;-55
2022/12/01 13:51:20;;;;;;;;;;;10.60;70.30;;;;;;5025752;28;19929;-52
2022/12/01 13:54:02;;;;;;;;;;;10.60;70.40;;;;;;5016676;28;19929;-55
2022/12/01 13:56:36;;;;;;;;;;;10.60;70.50;;;;;;5011827;28;20615;-55
2022/12/01 13:59:25;;;;;;;;;;;10.60;70.40;;;;;;5022015;28;20337;-53
2022/12/01 14:02:04;;;;;;;;;;;10.60;70.30;;;;;;5011573;28;19929;-53
2022/12/01 14:04:31;;;;;;;;;;;10.60;70.30;;;;;;5028520;28;19933;-55
2022/12/01 14:07:13;;;;;;;;;;;10.60;70.40;;;;;;5028671;28;20067;-55
2022/12/01 14:09:45;;;;;;;;;;;10.60;70.40;;;;;;5024064;28;20393;-55
2022/12/01 14:12:25;;;;;;;;;;;10.60;70.40;;;;;;5012087;28;19929;-52
2022/12/01 14:14:55;;;;;;;;;;;10.60;70.40;;;;;;5010537;28;19959;-55
2022/12/01 14:17:33;;;;;;;;;;;10.60;70.50;;;;;;5029421;28;19987;-55
2022/12/01 14:20:18;;;;;;;;;;;10.60;70.50;;;;;;5020437;28;19929;-52
2022/12/01 14:23:00;;;;;;;;;;;10.60;70.50;;;;;;5018680;28;21284;-54
2022/12/01 14:25:30;;;;;;;;;;;10.60;70.40;;;;;;5029975;28;19966;-53
2022/12/01 14:28:01;;;;;;;;;;;10.60;70.40;;;;;;5026119;28;20023;-55
2022/12/01 14:30:40;;;;;;;;;;;10.60;70.40;;;;;;5023999;28;19929;-55
2022/12/01 14:33:28;;;;;;;;;;;10.60;70.40;;;;;;5011966;28;19953;-55
2022/12/01 14:35:57;;;;;;;;;;;10.50;70.40;;;;;;5017639;28;19925;-55
2022/12/01 14:38:24;;;;;;;;;;;10.60;70.40;;;;;;5022809;28;19952;-55
2022/12/01 14:40:51;;;;;;;;;;;10.50;70.50;;;;;;5012769;28;19935;-55
2022/12/01 14:46:06;;;;;;;;;;;10.50;70.40;;;;;;5022435;28;19925;-55